Time;durP1;ratioP1;P1;durP2;ratioP2;P2;SDS_P1;SDS_P2;PMS_P1;PMS_P2;Temp;Humidity;BMP_temperature;BMP_pressure;BME280_temperature;BME280_humidity;BME280_pressure;Samples;Min_cycle;Max_cycle;Signal;HPM_P1;HPM_P2
2022/01/06 00:02:21;;;;;;;21.77;3.00;;;4.40;99.90;;;;;;4869061;29;20072;-87
2022/01/06 00:04:47;;;;;;;25.30;3.50;;;4.40;99.90;;;;;;4855755;29;155080;-86
2022/01/06 00:07:13;;;;;;;21.20;3.17;;;4.40;99.90;;;;;;4888349;29;20092;-88
2022/01/06 00:09:40;;;;;;;31.92;3.65;;;4.40;99.90;;;;;;4853347;29;164192;-87
2022/01/06 00:12:15;;;;;;;20.70;2.83;;;4.50;99.90;;;;;;4868571;29;20052;-87
2022/01/06 00:18:37;;;;;;;22.98;3.08;;;4.50;99.90;;;;;;4899299;29;20044;-86
2022/01/06 00:24:33;;;;;;;16.77;2.25;;;4.40;99.90;;;;;;5000900;28;162900;-86
2022/01/06 00:26:59;;;;;;;20.23;2.17;;;4.30;99.90;;;;;;5015982;28;20046;-87
2022/01/06 00:29:25;;;;;;;22.08;2.58;;;4.30;99.90;;;;;;4988837;28;73756;-87
2022/01/06 00:31:52;;;;;;;17.98;2.30;;;4.30;99.90;;;;;;5012239;28;20057;-86
2022/01/06 00:34:18;;;;;;;17.60;2.60;;;4.30;99.90;;;;;;5005287;28;30940;-86
2022/01/06 00:36:44;;;;;;;22.08;2.30;;;4.30;99.90;;;;;;5016698;28;20513;-87
2022/01/06 00:39:12;;;;;;;21.42;2.70;;;4.40;99.90;;;;;;4990285;28;75818;-84
2022/01/06 00:41:38;;;;;;;18.33;2.13;;;4.40;99.90;;;;;;5024653;28;20664;-82
2022/01/06 00:44:06;;;;;;;15.27;2.30;;;4.40;99.90;;;;;;4999591;28;206575;-84
2022/01/06 00:46:32;;;;;;;18.75;2.67;;;4.40;99.90;;;;;;5015063;28;20068;-85
2022/01/06 00:48:58;;;;;;;18.25;2.28;;;4.40;99.90;;;;;;4982555;28;237067;-85
2022/01/06 00:51:25;;;;;;;20.63;2.53;;;4.40;99.90;;;;;;5012628;28;20133;-84
2022/01/06 00:53:51;;;;;;;20.15;2.17;;;4.30;99.90;;;;;;5003130;28;242364;-83
2022/01/06 00:56:18;;;;;;;16.35;2.42;;;4.30;99.90;;;;;;5002931;28;20052;-84
2022/01/06 00:58:44;;;;;;;16.63;2.00;;;4.30;99.90;;;;;;4999332;28;262208;-84
2022/01/06 01:01:10;;;;;;;19.08;2.38;;;4.30;99.90;;;;;;5013134;28;20038;-83
2022/01/06 01:03:36;;;;;;;20.40;2.38;;;4.30;99.90;;;;;;4984461;28;208156;-85
2022/01/06 01:06:03;;;;;;;20.15;2.25;;;4.30;99.90;;;;;;4999057;28;20502;-83
2022/01/06 01:08:32;;;;;;;16.85;2.00;;;4.20;99.90;;;;;;5008797;28;20049;-83
2022/01/06 01:10:58;;;;;;;26.25;2.97;;;4.20;99.90;;;;;;4983681;28;20038;-85
2022/01/06 01:13:29;;;;;;;16.85;2.70;;;4.20;99.90;;;;;;5015301;28;20064;-84
2022/01/06 01:15:59;;;;;;;18.15;2.53;;;4.20;99.90;;;;;;5009674;28;238300;-83
2022/01/06 01:18:26;;;;;;;19.63;1.92;;;4.10;99.90;;;;;;5012602;28;20062;-84
2022/01/06 01:20:53;;;;;;;20.23;2.40;;;4.10;99.90;;;;;;5013392;28;145959;-84
2022/01/06 01:23:21;;;;;;;18.48;2.33;;;4.10;99.90;;;;;;5010685;28;20072;-83
2022/01/06 01:25:47;;;;;;;17.65;2.05;;;4.00;99.90;;;;;;4998535;28;72742;-83
2022/01/06 01:28:15;;;;;;;21.30;2.33;;;4.00;99.90;;;;;;4993373;28;20061;-85
2022/01/06 01:33:26;;;;;;;20.58;2.50;;;3.90;99.90;;;;;;5014112;28;20054;-85
2022/01/06 01:35:53;;;;;;;18.02;2.58;;;3.80;99.90;;;;;;5021414;23;55272;-84
2022/01/06 01:38:19;;;;;;;16.67;2.10;;;3.70;99.90;;;;;;5018836;28;20053;-84
2022/01/06 01:41:14;;;;;;;17.48;1.88;;;3.60;99.90;;;;;;4997822;28;77586;-83
2022/01/06 01:43:50;;;;;;;20.84;2.60;;;3.50;99.90;;;;;;4878564;28;3017787;-84
2022/01/06 01:46:41;;;;;;;;;;;;;;;;;;;;;
2022/01/06 01:52:08;;;;;;;20.83;2.40;;;3.40;99.90;;;;;;4975609;28;20043;-84
2022/01/06 01:57:38;;;;;;;19.92;1.90;;;3.40;99.90;;;;;;4972760;28;20142;-84
2022/01/06 02:00:52;;;;;;;;;;;;;;;;;;;;;
2022/01/06 02:06:24;;;;;;;25.55;2.58;;;3.20;99.90;;;;;;5001157;28;268187;-69
2022/01/06 02:08:51;;;;;;;21.88;2.95;;;3.20;99.90;;;;;;5004655;28;271562;-69
2022/01/06 02:11:18;;;;;;;23.85;3.20;;;3.20;99.90;;;;;;5006819;28;20057;-69
2022/01/06 02:13:52;;;;;;;24.77;2.72;;;3.20;99.90;;;;;;5005808;28;274760;-69
2022/01/06 02:16:26;;;;;;;24.20;2.75;;;3.20;99.90;;;;;;5009374;28;20049;-69
2022/01/06 02:18:53;;;;;;;19.75;2.15;;;3.30;99.90;;;;;;5013092;22;243573;-86
2022/01/06 02:21:20;;;;;;;24.25;2.50;;;3.40;99.90;;;;;;4976071;28;20068;-86
2022/01/06 02:23:46;;;;;;;23.10;2.67;;;3.40;99.90;;;;;;4976701;28;262705;-87
2022/01/06 02:26:13;;;;;;;21.33;2.65;;;3.40;99.90;;;;;;4984403;28;20057;-86
2022/01/06 02:28:41;;;;;;;24.20;2.60;;;3.40;99.90;;;;;;4962284;28;239855;-86
2022/01/06 02:31:09;;;;;;;27.15;2.95;;;3.40;99.90;;;;;;4997662;28;20054;-87
2022/01/06 02:33:36;;;;;;;22.55;2.53;;;3.40;99.90;;;;;;4980843;28;255948;-86
2022/01/06 02:36:04;;;;;;;22.73;2.88;;;3.40;99.90;;;;;;4980052;28;20064;-85
2022/01/06 02:38:30;;;;;;;23.45;2.60;;;3.40;99.90;;;;;;4982359;28;20053;-87
2022/01/06 02:40:59;;;;;;;25.55;2.78;;;3.40;99.90;;;;;;5016263;28;240007;-86
2022/01/06 02:43:26;;;;;;;23.83;2.53;;;3.40;99.90;;;;;;5005931;28;20076;-86
2022/01/06 02:45:54;;;;;;;19.75;3.03;;;3.40;99.90;;;;;;4992841;28;73464;-86
2022/01/06 02:48:21;;;;;;;24.80;3.33;;;3.40;99.90;;;;;;5047708;28;20037;-88
2022/01/06 02:50:50;;;;;;;22.60;2.67;;;3.40;99.90;;;;;;5015156;28;251494;-88
2022/01/06 02:53:18;;;;;;;19.23;2.67;;;3.40;99.90;;;;;;5053793;28;20046;-88
2022/01/06 02:55:53;;;;;;;26.17;2.83;;;3.40;99.90;;;;;;5024365;28;100662;-88
2022/01/06 02:58:21;;;;;;;25.58;2.78;;;3.50;99.90;;;;;;5049143;28;20049;-86
2022/01/06 03:00:48;;;;;;;18.92;2.38;;;3.40;99.90;;;;;;5005076;28;96789;-86
2022/01/06 03:03:14;;;;;;;21.10;2.83;;;3.40;99.90;;;;;;5003953;28;20053;-88
2022/01/06 03:05:41;;;;;;;23.48;3.42;;;3.50;99.90;;;;;;5010026;28;123951;-86
2022/01/06 03:08:07;;;;;;;25.75;3.03;;;3.50;99.90;;;;;;5024912;28;20077;-86
2022/01/06 03:10:37;;;;;;;21.77;3.00;;;3.50;99.90;;;;;;5004882;28;204528;-85
2022/01/06 03:13:04;;;;;;;24.75;3.58;;;3.50;99.90;;;;;;5045068;28;20048;-86
2022/01/06 03:15:30;;;;;;;21.52;2.45;;;3.40;99.90;;;;;;5026899;28;157507;-87
2022/01/06 03:17:58;;;;;;;27.02;2.70;;;3.40;99.90;;;;;;5041757;28;20045;-87
2022/01/06 03:20:27;;;;;;;28.40;3.17;;;3.40;99.90;;;;;;5011903;28;46091;-87
2022/01/06 03:22:55;;;;;;;20.65;2.63;;;3.30;99.90;;;;;;5020887;28;20060;-85
2022/01/06 03:25:21;;;;;;;19.90;3.25;;;3.30;99.90;;;;;;5022811;28;75204;-86
2022/01/06 03:27:47;;;;;;;20.70;3.05;;;3.40;99.90;;;;;;5053526;28;20393;-87
2022/01/06 03:30:16;;;;;;;22.38;2.25;;;3.40;99.90;;;;;;5027579;28;20470;-86
2022/01/06 03:32:44;;;;;;;21.30;2.45;;;3.40;99.90;;;;;;5023887;28;20049;-89
2022/01/06 03:35:15;;;;;;;19.05;2.20;;;3.40;99.90;;;;;;5019984;28;133201;-86
2022/01/06 03:37:41;;;;;;;22.05;2.58;;;3.40;99.90;;;;;;5019771;28;20524;-86
2022/01/06 03:40:09;;;;;;;19.15;2.10;;;3.30;99.90;;;;;;5013970;28;114696;-86
2022/01/06 03:42:38;;;;;;;19.15;2.40;;;3.30;99.90;;;;;;5022138;28;20339;-86
2022/01/06 03:45:08;;;;;;;17.95;2.30;;;3.30;99.90;;;;;;5000513;28;206600;-86
2022/01/06 03:47:34;;;;;;;17.67;2.13;;;3.30;99.90;;;;;;5023479;28;20600;-87
2022/01/06 03:50:01;;;;;;;20.50;2.20;;;3.20;99.90;;;;;;5003936;28;221072;-86
2022/01/06 03:52:27;;;;;;;21.73;2.30;;;3.20;99.90;;;;;;5037770;28;20049;-87
2022/01/06 03:54:53;;;;;;;17.80;2.10;;;3.20;99.90;;;;;;5006124;28;134245;-87
2022/01/06 03:57:20;;;;;;;18.70;2.47;;;3.20;99.90;;;;;;5055404;28;20050;-87
2022/01/06 03:59:46;;;;;;;17.75;2.10;;;3.10;99.90;;;;;;5034071;28;266682;-87
2022/01/06 04:02:13;;;;;;;18.35;1.98;;;3.10;99.90;;;;;;5025010;28;20056;-87
2022/01/06 04:04:39;;;;;;;18.23;2.50;;;3.00;99.90;;;;;;5012565;28;176293;-87
2022/01/06 04:07:05;;;;;;;18.85;2.38;;;3.00;99.90;;;;;;5038911;28;20426;-87
2022/01/06 04:09:31;;;;;;;18.75;2.25;;;2.90;99.90;;;;;;5021497;28;199217;-86
2022/01/06 04:11:58;;;;;;;18.85;2.25;;;2.80;99.90;;;;;;5020466;28;20532;-87
2022/01/06 04:14:24;;;;;;;17.85;2.08;;;2.80;99.90;;;;;;5006967;28;186327;-86
2022/01/06 04:16:57;;;;;;;17.17;2.35;;;2.70;99.90;;;;;;5022393;28;20053;-86
2022/01/06 04:19:24;;;;;;;20.35;2.60;;;2.60;99.90;;;;;;5009725;28;222442;-86
2022/01/06 04:21:50;;;;;;;19.80;2.60;;;2.60;99.90;;;;;;5068117;28;20041;-86
2022/01/06 04:24:16;;;;;;;21.77;1.80;;;2.50;99.90;;;;;;5021363;28;248530;-87
2022/01/06 04:26:43;;;;;;;19.63;2.22;;;2.50;99.90;;;;;;5023854;28;20052;-87
2022/01/06 04:29:10;;;;;;;14.90;2.28;;;2.40;99.90;;;;;;5010190;28;101577;-86
2022/01/06 04:31:38;;;;;;;23.58;2.72;;;2.40;99.90;;;;;;5024809;28;20144;-86
2022/01/06 04:34:04;;;;;;;21.67;2.42;;;2.30;99.90;;;;;;5007869;28;84769;-87
2022/01/06 04:36:30;;;;;;;20.80;2.50;;;2.30;99.90;;;;;;5021144;28;20362;-86
2022/01/06 04:38:57;;;;;;;19.98;2.60;;;2.20;99.90;;;;;;5024164;28;98391;-86
2022/01/06 04:41:23;;;;;;;18.13;2.53;;;2.20;99.90;;;;;;5021591;28;20056;-86
2022/01/06 04:43:49;;;;;;;17.90;2.30;;;2.20;99.90;;;;;;5002818;28;256616;-87
2022/01/06 04:46:16;;;;;;;22.48;2.15;;;2.10;99.90;;;;;;5022034;28;20053;-87
2022/01/06 04:48:42;;;;;;;19.98;2.38;;;2.10;99.90;;;;;;5025111;28;244274;-87
2022/01/06 04:51:09;;;;;;;17.45;1.83;;;2.10;99.90;;;;;;5022290;28;20064;-86
2022/01/06 04:53:35;;;;;;;21.13;2.28;;;2.00;99.90;;;;;;5018763;28;266361;-88
2022/01/06 04:56:01;;;;;;;17.60;2.05;;;1.90;99.90;;;;;;5019295;28;20044;-86
2022/01/06 04:58:28;;;;;;;16.02;1.85;;;1.90;99.90;;;;;;5021979;28;20049;-86
2022/01/06 05:00:55;;;;;;;19.05;2.33;;;1.80;99.90;;;;;;5019565;28;110716;-87
2022/01/06 05:03:22;;;;;;;19.58;2.08;;;1.80;99.90;;;;;;5021252;28;20072;-86
2022/01/06 05:05:48;;;;;;;25.55;2.53;;;1.80;99.90;;;;;;5002741;28;233046;-87
2022/01/06 05:08:14;;;;;;;21.88;2.55;;;1.80;99.90;;;;;;5022560;28;20167;-87
2022/01/06 05:10:41;;;;;;;20.52;2.15;;;1.80;99.90;;;;;;5008066;28;166336;-88
2022/01/06 05:13:07;;;;;;;26.05;2.60;;;1.80;99.90;;;;;;5023971;28;20057;-87
2022/01/06 05:15:33;;;;;;;29.80;2.78;;;1.80;99.90;;;;;;5008370;28;175194;-88
2022/01/06 05:17:59;;;;;;;19.05;2.63;;;1.80;99.90;;;;;;5023450;28;20041;-89
2022/01/06 05:20:26;;;;;;;27.45;2.70;;;1.80;99.90;;;;;;5009751;28;48631;-89
2022/01/06 05:22:56;;;;;;;23.80;2.35;;;1.80;99.90;;;;;;5022925;28;20100;-86
2022/01/06 05:25:26;;;;;;;21.48;2.55;;;1.70;99.90;;;;;;5008684;28;106527;-88
2022/01/06 05:27:55;;;;;;;21.30;2.65;;;1.70;99.90;;;;;;5034287;28;20297;-87
2022/01/06 05:30:22;;;;;;;24.00;2.78;;;1.60;99.90;;;;;;5022407;28;75781;-86
2022/01/06 05:32:49;;;;;;;20.40;2.20;;;1.50;99.90;;;;;;5044878;28;20071;-86
2022/01/06 05:35:16;;;;;;;14.15;1.83;;;1.40;99.90;;;;;;5010660;28;213030;-86
2022/01/06 05:37:42;;;;;;;20.73;2.47;;;1.30;99.90;;;;;;5043590;28;20497;-86
2022/01/06 05:40:09;;;;;;;22.75;2.10;;;1.20;99.90;;;;;;5007378;28;264669;-88
2022/01/06 05:42:36;;;;;;;16.55;2.33;;;1.10;99.90;;;;;;5031365;28;20037;-89
2022/01/06 05:45:04;;;;;;;20.40;2.67;;;1.00;99.90;;;;;;5010031;28;141685;-88
2022/01/06 05:47:30;;;;;;;18.95;2.50;;;1.00;99.90;;;;;;5030892;28;20045;-89
2022/01/06 05:50:07;;;;;;;24.08;2.60;;;1.00;99.90;;;;;;5012827;28;217917;-87
2022/01/06 05:52:33;;;;;;;24.77;2.70;;;1.00;99.90;;;;;;5040771;28;20043;-89
2022/01/06 05:55:01;;;;;;;21.80;2.40;;;1.00;99.90;;;;;;5035896;28;134150;-88
2022/01/06 05:57:27;;;;;;;21.48;2.10;;;1.00;99.90;;;;;;5054376;28;20053;-89
2022/01/06 05:59:54;;;;;;;24.05;2.45;;;1.10;99.90;;;;;;5047495;28;20052;-88
2022/01/06 06:02:20;;;;;;;24.58;2.33;;;1.10;99.90;;;;;;5043290;28;20044;-91
2022/01/06 06:04:48;;;;;;;19.98;2.75;;;1.10;99.90;;;;;;5005033;28;247842;-87
2022/01/06 06:07:17;;;;;;;20.35;2.15;;;1.10;99.90;;;;;;5032010;28;20063;-88
2022/01/06 06:09:46;;;;;;;22.42;3.17;;;1.10;99.90;;;;;;5042288;28;102070;-86
2022/01/06 06:12:13;;;;;;;21.55;2.00;;;1.10;99.90;;;;;;5047678;28;20041;-86
2022/01/06 06:14:39;;;;;;;22.85;2.40;;;1.10;99.90;;;;;;5020785;28;235550;-87
2022/01/06 06:17:06;;;;;;;21.67;2.90;;;1.10;99.90;;;;;;5029621;28;20048;-88
2022/01/06 06:19:32;;;;;;;25.13;2.70;;;1.10;99.90;;;;;;5007309;28;195836;-88
2022/01/06 06:22:02;;;;;;;22.00;2.70;;;1.10;99.90;;;;;;5039168;28;20041;-88
2022/01/06 06:24:29;;;;;;;18.13;2.55;;;1.10;99.90;;;;;;5026781;28;122639;-89
2022/01/06 06:26:57;;;;;;;17.65;2.40;;;1.10;99.90;;;;;;5041247;28;20111;-87
2022/01/06 06:29:23;;;;;;;19.40;2.47;;;1.10;99.90;;;;;;5041742;28;91264;-88
2022/01/06 06:31:50;;;;;;;20.48;2.53;;;1.10;99.90;;;;;;5038595;28;20057;-88
2022/01/06 06:34:16;;;;;;;23.15;2.60;;;1.10;99.90;;;;;;5016587;28;42599;-87
2022/01/06 06:36:42;;;;;;;27.35;2.63;;;1.10;99.90;;;;;;5026061;28;20060;-88
2022/01/06 06:39:10;;;;;;;17.23;2.25;;;1.10;99.90;;;;;;5013971;28;208094;-87
2022/01/06 06:41:36;;;;;;;19.70;2.53;;;1.00;99.90;;;;;;5028202;28;20049;-87
2022/01/06 06:44:05;;;;;;;21.20;2.40;;;0.90;99.90;;;;;;5044723;28;214823;-88
2022/01/06 06:46:32;;;;;;;21.05;2.72;;;0.80;99.90;;;;;;5066121;28;20059;-89
2022/01/06 06:48:58;;;;;;;21.35;2.53;;;0.70;99.90;;;;;;5019662;28;142701;-89
2022/01/06 06:51:24;;;;;;;16.20;2.42;;;0.60;99.90;;;;;;5034676;28;20056;-88
2022/01/06 06:53:51;;;;;;;16.40;2.27;;;0.60;99.90;;;;;;5016840;28;245211;-88
2022/01/06 06:56:17;;;;;;;18.63;2.60;;;0.50;99.90;;;;;;5032287;28;20243;-88
2022/01/06 06:58:43;;;;;;;23.27;3.03;;;0.40;99.90;;;;;;5031128;28;20056;-87
2022/01/06 07:01:09;;;;;;;22.80;2.88;;;0.40;99.90;;;;;;5027333;28;20053;-87
2022/01/06 07:03:36;;;;;;;18.70;2.33;;;0.30;99.90;;;;;;5001022;28;250677;-88
2022/01/06 07:06:02;;;;;;;19.58;2.53;;;0.30;99.90;;;;;;5026189;28;20048;-86
2022/01/06 07:08:31;;;;;;;24.42;2.47;;;0.20;99.90;;;;;;5025644;28;20067;-88
2022/01/06 07:10:59;;;;;;;23.30;2.92;;;0.20;99.90;;;;;;5027039;28;173096;-89
2022/01/06 07:13:25;;;;;;;23.85;3.10;;;0.10;99.90;;;;;;5026337;28;20056;-88
2022/01/06 07:15:52;;;;;;;24.55;2.85;;;0.10;99.90;;;;;;5014050;28;105064;-87
2022/01/06 07:18:20;;;;;;;21.10;2.63;;;0.10;99.90;;;;;;5046819;28;20370;-89
2022/01/06 07:20:47;;;;;;;22.38;2.75;;;0.10;99.90;;;;;;5017772;28;20189;-88
2022/01/06 07:23:13;;;;;;;25.83;2.75;;;0.00;99.90;;;;;;5032570;28;20045;-86
2022/01/06 07:25:39;;;;;;;14.65;2.45;;;0.00;99.90;;;;;;5019476;28;103147;-87
2022/01/06 07:28:06;;;;;;;20.77;2.58;;;0.00;99.90;;;;;;5054606;28;20604;-87
2022/01/06 07:30:33;;;;;;;23.98;3.00;;;0.00;99.90;;;;;;5034574;28;25893;-90
2022/01/06 07:33:00;;;;;;;20.50;2.78;;;-0.10;99.90;;;;;;5029108;28;20049;-87
2022/01/06 07:35:27;;;;;;;25.58;3.08;;;-0.10;99.90;;;;;;5012543;28;68610;-90
2022/01/06 07:37:54;;;;;;;24.15;3.08;;;-0.10;99.90;;;;;;5029838;28;20052;-86
2022/01/06 07:40:21;;;;;;;28.42;3.85;;;-0.10;99.90;;;;;;5019053;28;51081;-88
2022/01/06 07:42:49;;;;;;;28.30;2.90;;;0.00;99.90;;;;;;5032211;28;20064;-87
2022/01/06 07:45:17;;;;;;;31.23;3.03;;;0.10;99.90;;;;;;5008162;28;209771;-87
2022/01/06 07:47:55;;;;;;;23.83;2.90;;;0.20;99.90;;;;;;5024016;28;20056;-87
2022/01/06 07:50:32;;;;;;;17.38;2.65;;;0.30;99.90;;;;;;5021212;28;250715;-87
2022/01/06 07:52:59;;;;;;;31.90;3.17;;;0.40;99.90;;;;;;5024574;28;20057;-87
2022/01/06 07:55:27;;;;;;;28.90;3.40;;;0.50;99.90;;;;;;5031020;28;119661;-86
2022/01/06 07:57:55;;;;;;;27.42;3.63;;;0.60;99.90;;;;;;5040099;28;20111;-86
2022/01/06 08:00:22;;;;;;;18.17;3.05;;;0.70;99.90;;;;;;5049577;28;129985;-87
2022/01/06 08:02:49;;;;;;;23.65;3.22;;;0.80;99.90;;;;;;5045617;28;20044;-88
2022/01/06 08:05:16;;;;;;;28.40;3.90;;;0.80;99.90;;;;;;5010923;28;221781;-87
2022/01/06 08:07:42;;;;;;;25.48;3.53;;;0.80;99.90;;;;;;5025546;28;20056;-88
2022/01/06 08:10:13;;;;;;;31.38;4.45;;;0.80;99.90;;;;;;5016093;28;137490;-88
2022/01/06 08:12:40;;;;;;;21.63;2.75;;;0.80;99.90;;;;;;5023929;28;20056;-87
2022/01/06 08:15:07;;;;;;;23.05;3.60;;;0.80;99.90;;;;;;5012408;28;176218;-87
2022/01/06 08:17:36;;;;;;;27.17;3.70;;;0.80;99.90;;;;;;5046549;28;20059;-86
2022/01/06 08:20:07;;;;;;;23.58;3.03;;;0.80;99.90;;;;;;5025792;28;20053;-87
2022/01/06 08:22:35;;;;;;;27.25;3.45;;;0.90;99.90;;;;;;5023011;28;20490;-86
2022/01/06 08:25:03;;;;;;;25.25;3.78;;;0.90;99.90;;;;;;5011760;28;23514;-87
2022/01/06 08:27:29;;;;;;;21.83;2.78;;;0.90;99.90;;;;;;5022997;28;20045;-86
2022/01/06 08:29:55;;;;;;;19.30;3.13;;;0.90;99.90;;;;;;5032169;28;26070;-86
2022/01/06 08:32:22;;;;;;;17.63;2.83;;;1.00;99.90;;;;;;5023316;28;20056;-88
2022/01/06 08:34:48;;;;;;;22.88;3.40;;;1.00;99.90;;;;;;5025406;28;183692;-87
2022/01/06 08:37:18;;;;;;;22.95;3.03;;;1.00;99.90;;;;;;5025748;28;20057;-89
2022/01/06 08:39:46;;;;;;;24.95;2.90;;;1.00;99.90;;;;;;5013135;28;135635;-87
2022/01/06 08:42:17;;;;;;;19.13;2.85;;;1.00;99.90;;;;;;5027332;28;20041;-88
2022/01/06 08:44:43;;;;;;;21.38;3.00;;;1.10;99.90;;;;;;5017322;28;67644;-88
2022/01/06 08:47:10;;;;;;;23.63;3.35;;;1.10;99.90;;;;;;5041855;28;20309;-88
2022/01/06 08:49:45;;;;;;;33.65;3.65;;;1.10;99.90;;;;;;5021060;28;20095;-88
2022/01/06 08:52:11;;;;;;;24.48;3.35;;;1.10;99.90;;;;;;5007053;28;20054;-87
2022/01/06 08:54:41;;;;;;;27.17;3.30;;;1.10;99.90;;;;;;4989737;28;20097;-93
2022/01/06 08:57:07;;;;;;;22.48;3.53;;;1.10;99.90;;;;;;5010765;28;20052;-88
2022/01/06 08:59:34;;;;;;;44.05;3.30;;;1.10;99.90;;;;;;4992936;28;226157;-88
2022/01/06 09:02:00;;;;;;;25.95;3.03;;;1.20;99.90;;;;;;4990356;28;20069;-87
2022/01/06 09:04:26;;;;;;;23.10;3.00;;;1.20;99.90;;;;;;4878737;28;3044718;-86
2022/01/06 09:06:53;;;;;;;24.98;3.08;;;1.20;99.90;;;;;;5006453;28;20050;-87
2022/01/06 09:09:29;;;;;;;24.02;3.17;;;1.20;99.90;;;;;;4984541;28;185048;-89
2022/01/06 09:12:18;;;;;;;22.67;3.00;;;1.20;99.90;;;;;;4989989;28;20069;-88
2022/01/06 09:14:57;;;;;;;24.00;3.00;;;1.30;99.90;;;;;;4985021;28;173623;-90
2022/01/06 09:17:24;;;;;;;21.10;3.85;;;1.30;99.90;;;;;;4997880;28;20070;-89
2022/01/06 09:19:50;;;;;;;25.90;3.58;;;1.30;99.90;;;;;;4982551;28;130388;-88
2022/01/06 09:23:01;;;;;;;20.25;3.47;;;1.40;99.90;;;;;;4988798;28;20057;-89
2022/01/06 09:25:31;;;;;;;25.33;3.15;;;1.30;99.90;;;;;;5017590;23;234830;-69
2022/01/06 09:27:57;;;;;;;22.00;3.10;;;1.30;99.90;;;;;;4990424;28;20038;-68
2022/01/06 09:30:25;;;;;;;29.15;3.88;;;1.40;99.90;;;;;;4942020;28;58354;-69
2022/01/06 09:32:53;;;;;;;21.00;3.63;;;1.40;99.90;;;;;;4953131;28;20051;-69
2022/01/06 09:35:20;;;;;;;25.70;3.67;;;1.50;99.90;;;;;;4936335;28;89040;-69
2022/01/06 09:37:47;;;;;;;31.98;4.18;;;1.50;99.90;;;;;;4950530;28;20051;-70
2022/01/06 09:40:13;;;;;;;30.48;3.53;;;1.60;99.90;;;;;;4988726;23;253541;-83
2022/01/06 09:42:41;;;;;;;23.85;3.53;;;1.60;99.90;;;;;;4981362;28;20061;-84
2022/01/06 09:45:08;;;;;;;22.40;3.42;;;1.60;99.90;;;;;;4994616;28;20061;-83
2022/01/06 09:47:34;;;;;;;19.10;3.72;;;1.70;99.90;;;;;;4980383;28;20077;-82
2022/01/06 09:50:00;;;;;;;25.55;3.28;;;1.70;99.90;;;;;;4993511;28;198744;-83
2022/01/06 09:52:26;;;;;;;25.10;4.22;;;1.70;99.90;;;;;;5007248;28;20049;-83
2022/01/06 09:54:52;;;;;;;25.63;3.67;;;1.80;99.90;;;;;;4981509;22;230260;-70
2022/01/06 09:57:18;;;;;;;25.27;3.42;;;1.90;99.90;;;;;;4943649;28;20070;-70
2022/01/06 09:59:45;;;;;;;23.73;3.38;;;1.90;99.90;;;;;;4945572;28;115627;-70
2022/01/06 10:02:16;;;;;;;22.98;3.80;;;1.90;99.90;;;;;;4957452;28;20058;-70
2022/01/06 10:04:57;;;;;;;24.42;3.88;;;2.00;99.90;;;;;;4940192;28;258113;-70
2022/01/06 10:07:23;;;;;;;25.08;3.92;;;2.10;99.90;;;;;;4963045;28;20061;-70
2022/01/06 10:09:50;;;;;;;29.80;4.22;;;2.10;99.90;;;;;;5042861;23;21338;-83
2022/01/06 10:12:16;;;;;;;24.75;4.82;;;2.20;99.90;;;;;;5070456;28;20091;-82
2022/01/06 10:14:49;;;;;;;22.95;3.80;;;2.20;99.90;;;;;;5029623;28;23913;-82
2022/01/06 10:17:29;;;;;;;24.65;3.95;;;2.20;99.90;;;;;;5052710;28;20049;-84
2022/01/06 10:19:55;;;;;;;32.42;4.75;;;2.30;99.90;;;;;;5032858;28;103019;-83
2022/01/06 10:22:22;;;;;;;24.38;4.35;;;2.40;99.90;;;;;;5056534;23;20046;-71
2022/01/06 10:24:50;;;;;;;31.83;4.72;;;2.50;99.90;;;;;;4982863;28;204103;-71
2022/01/06 10:27:19;;;;;;;30.02;4.25;;;2.50;99.90;;;;;;5027002;28;20163;-71
2022/01/06 10:29:48;;;;;;;22.98;4.00;;;2.60;99.90;;;;;;5018106;28;276056;-71
2022/01/06 10:32:18;;;;;;;25.10;3.95;;;2.60;99.90;;;;;;5020747;28;20059;-71
2022/01/06 10:34:48;;;;;;;19.63;3.70;;;2.80;99.90;;;;;;5015751;28;80683;-71
2022/01/06 10:37:27;;;;;;;30.08;4.38;;;2.80;99.90;;;;;;5072892;23;20060;-70
2022/01/06 10:39:57;;;;;;;29.63;4.90;;;2.90;99.90;;;;;;5046121;28;211947;-69
2022/01/06 10:42:25;;;;;;;27.92;4.05;;;3.00;99.90;;;;;;5082048;28;20222;-70
2022/01/06 10:44:59;;;;;;;23.35;3.55;;;3.10;99.90;;;;;;5044945;28;245763;-70
2022/01/06 10:47:34;;;;;;;31.95;4.38;;;3.20;99.90;;;;;;5101445;28;20440;-70
2022/01/06 10:50:21;;;;;;;26.15;3.95;;;3.30;99.90;;;;;;5071502;28;102375;-70
2022/01/06 10:52:56;;;;;;;25.75;3.85;;;3.40;99.90;;;;;;5107453;28;20047;-70
2022/01/06 10:55:28;;;;;;;19.13;3.50;;;3.40;99.90;;;;;;5087928;27;261109;-70
2022/01/06 10:58:05;;;;;;;25.23;3.72;;;3.50;99.90;;;;;;5111414;27;20067;-71
2022/01/06 11:00:36;;;;;;;23.25;3.38;;;3.60;99.90;;;;;;5071269;28;20107;-70
2022/01/06 11:03:17;;;;;;;34.20;4.22;;;3.70;99.90;;;;;;5090648;28;20045;-71
2022/01/06 11:05:46;;;;;;;22.63;3.30;;;3.80;99.90;;;;;;5069275;27;264747;-71
2022/01/06 11:08:16;;;;;;;22.00;2.80;;;3.90;99.90;;;;;;5079712;28;20059;-71
2022/01/06 11:10:48;;;;;;;23.65;3.97;;;3.90;99.90;;;;;;5078524;28;154705;-71
2022/01/06 11:13:17;;;;;;;21.20;3.72;;;4.00;99.90;;;;;;5089042;28;20147;-70
2022/01/06 11:15:44;;;;;;;25.13;4.18;;;4.00;99.90;;;;;;5065116;28;253223;-71
2022/01/06 11:18:17;;;;;;;25.23;3.95;;;4.10;99.90;;;;;;5050802;28;20051;-71
2022/01/06 11:20:43;;;;;;;26.73;3.15;;;4.10;99.90;;;;;;5039304;28;262930;-71
2022/01/06 11:23:22;;;;;;;21.25;3.63;;;4.20;99.90;;;;;;5082454;28;20051;-70
2022/01/06 11:26:07;;;;;;;22.15;4.07;;;4.30;99.90;;;;;;5067160;28;22708;-71
2022/01/06 11:28:34;;;;;;;25.63;4.00;;;4.30;99.90;;;;;;5071074;28;256274;-71
2022/01/06 11:31:24;;;;;;;20.50;2.67;;;4.40;99.90;;;;;;5074423;28;20048;-71
2022/01/06 11:33:52;;;;;;;22.67;3.08;;;4.40;99.90;;;;;;5068390;28;267287;-71
2022/01/06 11:36:24;;;;;;;24.40;2.92;;;4.50;99.90;;;;;;5064242;28;20135;-71
2022/01/06 11:38:52;;;;;;;21.38;3.13;;;4.60;99.90;;;;;;5060636;28;270240;-71
2022/01/06 11:41:19;;;;;;;28.23;3.63;;;4.70;99.90;;;;;;5048413;28;20393;-71
2022/01/06 11:43:47;;;;;;;19.63;2.80;;;4.80;99.90;;;;;;5071128;28;250104;-71
2022/01/06 11:46:14;;;;;;;18.42;2.90;;;4.90;99.90;;;;;;5085969;28;20044;-71
2022/01/06 11:48:53;;;;;;;17.42;2.55;;;5.00;99.90;;;;;;5070819;28;266247;-71
2022/01/06 11:51:25;;;;;;;22.05;3.10;;;5.10;99.90;;;;;;5099314;28;20067;-71
2022/01/06 11:53:52;;;;;;;18.67;2.73;;;5.10;99.90;;;;;;5077798;28;275833;-71
2022/01/06 11:56:18;;;;;;;21.33;3.20;;;5.20;99.90;;;;;;5062729;28;20060;-71
2022/01/06 11:58:58;;;;;;;21.10;2.83;;;5.20;99.90;;;;;;5079944;28;274728;-71
2022/01/06 12:01:24;;;;;;;19.60;3.00;;;5.30;99.90;;;;;;5070157;28;20051;-70
2022/01/06 12:03:50;;;;;;;20.92;2.90;;;5.40;99.90;;;;;;5049108;28;257488;-70
2022/01/06 12:06:28;;;;;;;22.70;2.90;;;5.40;99.90;;;;;;5074219;28;20044;-71
2022/01/06 12:08:55;;;;;;;19.48;2.80;;;5.50;99.90;;;;;;5084430;28;255010;-70
2022/01/06 12:11:22;;;;;;;24.40;3.00;;;5.60;99.90;;;;;;5096410;28;20054;-70
2022/01/06 12:13:50;;;;;;;15.63;2.35;;;5.60;99.90;;;;;;5066223;28;253649;-70
2022/01/06 12:16:25;;;;;;;21.85;3.03;;;5.70;99.90;;;;;;5063328;28;20052;-70
2022/01/06 12:18:51;;;;;;;18.73;2.85;;;5.70;99.90;;;;;;5064817;28;275824;-71
2022/01/06 12:21:18;;;;;;;26.23;3.25;;;5.80;99.90;;;;;;5079467;28;20044;-70
2022/01/06 12:23:46;;;;;;;24.27;2.70;;;6.10;99.90;;;;;;5068634;28;252563;-70
2022/01/06 12:26:13;;;;;;;24.45;3.15;;;7.60;99.90;;;;;;5099949;28;20051;-71
2022/01/06 12:28:48;;;;;;;21.10;2.80;;;8.90;99.90;;;;;;5064367;28;256204;-72
2022/01/06 12:31:23;;;;;;;18.90;2.88;;;9.90;99.90;;;;;;5094738;28;20067;-71
2022/01/06 12:33:50;;;;;;;18.60;2.80;;;10.60;99.90;;;;;;5068765;28;268685;-71
2022/01/06 12:36:21;;;;;;;21.85;3.42;;;11.30;99.50;;;;;;5081909;28;20513;-71
2022/01/06 12:38:47;;;;;;;22.83;2.90;;;11.80;96.60;;;;;;5063834;28;273075;-71
2022/01/06 12:41:16;;;;;;;22.90;3.58;;;12.10;97.10;;;;;;5077090;28;20527;-71
2022/01/06 12:43:43;;;;;;;19.20;3.35;;;12.40;95.40;;;;;;5066496;28;253146;-71
2022/01/06 12:46:11;;;;;;;23.15;3.80;;;12.60;92.40;;;;;;5064177;28;20047;-71
2022/01/06 12:48:45;;;;;;;18.05;3.20;;;12.70;92.60;;;;;;5078427;28;20052;-71
2022/01/06 12:51:18;;;;;;;22.23;3.45;;;13.00;94.20;;;;;;5083690;28;20052;-70
2022/01/06 12:53:46;;;;;;;21.10;3.22;;;13.10;91.60;;;;;;5081446;28;20505;-71
2022/01/06 12:56:29;;;;;;;19.20;3.38;;;13.70;94.80;;;;;;5085400;28;20047;-71
2022/01/06 12:59:01;;;;;;;19.23;3.28;;;14.10;92.60;;;;;;5086358;28;20059;-69
2022/01/06 13:01:27;;;;;;;;;;;14.30;92.60;;;;;;5074675;28;20167;-69
2022/01/06 13:03:54;;;;;;;17.48;3.22;;;14.40;82.30;;;;;;5039927;28;272673;-70
2022/01/06 13:06:23;;;;;;;22.30;3.20;;;14.50;87.60;;;;;;5026680;28;20051;-70
2022/01/06 13:08:54;;;;;;;19.35;3.20;;;14.70;90.10;;;;;;5047225;28;271567;-70
2022/01/06 13:11:23;;;;;;;16.98;3.15;;;14.50;85.60;;;;;;5075325;28;20048;-70
2022/01/06 13:13:59;;;;;;;16.77;2.93;;;14.60;88.60;;;;;;5060129;28;252683;-70